sensor_id;sensor_type;location;lat;lon;timestamp;P1;durP1;ratioP1;P2;durP2;ratioP2
12145;SDS011;6136;47.032;15.398;2022-08-14T00:01:34;5.37;;;4.97;;
12145;SDS011;6136;47.032;15.398;2022-08-14T00:04:03;5.07;;;4.63;;
12145;SDS011;6136;47.032;15.398;2022-08-14T00:06:52;5.60;;;5.10;;
12145;SDS011;6136;47.032;15.398;2022-08-14T00:09:20;5.73;;;4.87;;
12145;SDS011;6136;47.032;15.398;2022-08-14T00:11:50;5.27;;;4.43;;
12145;SDS011;6136;47.032;15.398;2022-08-14T00:14:19;6.47;;;5.00;;
12145;SDS011;6136;47.032;15.398;2022-08-14T00:16:47;5.30;;;4.80;;
12145;SDS011;6136;47.032;15.398;2022-08-14T00:19:17;7.20;;;4.77;;
12145;SDS011;6136;47.032;15.398;2022-08-14T00:21:47;4.93;;;4.40;;
12145;SDS011;6136;47.032;15.398;2022-08-14T00:24:16;5.70;;;4.60;;
12145;SDS011;6136;47.032;15.398;2022-08-14T00:26:55;4.63;;;4.23;;
12145;SDS011;6136;47.032;15.398;2022-08-14T00:29:28;8.77;;;4.80;;
12145;SDS011;6136;47.032;15.398;2022-08-14T00:31:58;5.07;;;4.57;;
12145;SDS011;6136;47.032;15.398;2022-08-14T00:34:26;6.03;;;4.53;;
12145;SDS011;6136;47.032;15.398;2022-08-14T00:37:01;5.83;;;5.10;;
12145;SDS011;6136;47.032;15.398;2022-08-14T00:39:31;5.37;;;4.60;;
12145;SDS011;6136;47.032;15.398;2022-08-14T00:42:00;5.07;;;4.57;;
12145;SDS011;6136;47.032;15.398;2022-08-14T00:44:28;5.43;;;4.93;;
12145;SDS011;6136;47.032;15.398;2022-08-14T00:46:58;5.27;;;4.77;;
12145;SDS011;6136;47.032;15.398;2022-08-14T00:49:26;5.17;;;4.67;;
12145;SDS011;6136;47.032;15.398;2022-08-14T00:51:56;5.93;;;4.60;;
12145;SDS011;6136;47.032;15.398;2022-08-14T00:54:25;5.67;;;4.30;;
12145;SDS011;6136;47.032;15.398;2022-08-14T00:56:54;4.50;;;4.10;;
12145;SDS011;6136;47.032;15.398;2022-08-14T00:59:25;6.50;;;4.50;;
12145;SDS011;6136;47.032;15.398;2022-08-14T01:01:56;5.17;;;4.67;;
12145;SDS011;6136;47.032;15.398;2022-08-14T01:04:26;5.27;;;4.37;;
12145;SDS011;6136;47.032;15.398;2022-08-14T01:07:16;4.83;;;4.20;;
12145;SDS011;6136;47.032;15.398;2022-08-14T01:09:47;4.87;;;4.27;;
12145;SDS011;6136;47.032;15.398;2022-08-14T01:12:17;6.57;;;4.80;;
12145;SDS011;6136;47.032;15.398;2022-08-14T01:14:53;5.73;;;4.70;;
12145;SDS011;6136;47.032;15.398;2022-08-14T01:17:24;4.97;;;4.40;;
12145;SDS011;6136;47.032;15.398;2022-08-14T01:20:15;5.13;;;4.63;;
12145;SDS011;6136;47.032;15.398;2022-08-14T01:23:02;5.80;;;5.00;;
12145;SDS011;6136;47.032;15.398;2022-08-14T01:25:42;5.60;;;4.23;;
12145;SDS011;6136;47.032;15.398;2022-08-14T01:28:11;5.47;;;4.97;;
12145;SDS011;6136;47.032;15.398;2022-08-14T01:31:00;5.10;;;4.57;;
12145;SDS011;6136;47.032;15.398;2022-08-14T01:33:31;5.03;;;4.53;;
12145;SDS011;6136;47.032;15.398;2022-08-14T01:36:20;4.67;;;4.27;;
12145;SDS011;6136;47.032;15.398;2022-08-14T01:38:51;4.53;;;4.10;;
12145;SDS011;6136;47.032;15.398;2022-08-14T01:41:24;5.90;;;5.10;;
12145;SDS011;6136;47.032;15.398;2022-08-14T01:43:56;5.07;;;4.63;;
12145;SDS011;6136;47.032;15.398;2022-08-14T01:46:27;5.60;;;4.70;;
12145;SDS011;6136;47.032;15.398;2022-08-14T01:48:59;6.50;;;4.93;;
12145;SDS011;6136;47.032;15.398;2022-08-14T01:51:27;5.33;;;4.83;;
12145;SDS011;6136;47.032;15.398;2022-08-14T01:53:58;4.83;;;4.33;;
12145;SDS011;6136;47.032;15.398;2022-08-14T01:56:28;7.57;;;4.70;;
12145;SDS011;6136;47.032;15.398;2022-08-14T01:59:05;5.43;;;4.93;;
12145;SDS011;6136;47.032;15.398;2022-08-14T02:01:35;5.67;;;5.03;;
12145;SDS011;6136;47.032;15.398;2022-08-14T02:04:07;6.53;;;4.67;;
12145;SDS011;6136;47.032;15.398;2022-08-14T02:06:46;6.90;;;4.40;;
12145;SDS011;6136;47.032;15.398;2022-08-14T02:09:18;6.40;;;5.27;;
12145;SDS011;6136;47.032;15.398;2022-08-14T02:11:48;5.40;;;4.87;;
12145;SDS011;6136;47.032;15.398;2022-08-14T02:14:20;5.30;;;4.53;;
12145;SDS011;6136;47.032;15.398;2022-08-14T02:16:57;8.53;;;4.03;;
12145;SDS011;6136;47.032;15.398;2022-08-14T02:19:27;5.10;;;4.60;;
12145;SDS011;6136;47.032;15.398;2022-08-14T02:21:57;5.00;;;4.50;;
12145;SDS011;6136;47.032;15.398;2022-08-14T02:24:30;5.57;;;4.60;;
12145;SDS011;6136;47.032;15.398;2022-08-14T02:27:05;6.30;;;4.80;;
12145;SDS011;6136;47.032;15.398;2022-08-14T02:29:55;5.97;;;5.00;;
12145;SDS011;6136;47.032;15.398;2022-08-14T02:32:27;5.60;;;5.10;;
12145;SDS011;6136;47.032;15.398;2022-08-14T02:35:02;5.20;;;4.70;;
12145;SDS011;6136;47.032;15.398;2022-08-14T02:37:44;6.93;;;4.67;;
12145;SDS011;6136;47.032;15.398;2022-08-14T02:40:16;6.67;;;5.00;;
12145;SDS011;6136;47.032;15.398;2022-08-14T02:42:45;6.10;;;5.00;;
12145;SDS011;6136;47.032;15.398;2022-08-14T02:45:20;4.90;;;4.27;;
12145;SDS011;6136;47.032;15.398;2022-08-14T02:47:49;6.50;;;4.37;;
12145;SDS011;6136;47.032;15.398;2022-08-14T02:50:19;5.17;;;4.67;;
12145;SDS011;6136;47.032;15.398;2022-08-14T02:52:47;5.10;;;4.60;;
12145;SDS011;6136;47.032;15.398;2022-08-14T02:55:24;5.67;;;5.07;;
12145;SDS011;6136;47.032;15.398;2022-08-14T02:57:52;4.97;;;4.50;;
12145;SDS011;6136;47.032;15.398;2022-08-14T03:00:23;5.53;;;4.93;;
12145;SDS011;6136;47.032;15.398;2022-08-14T03:02:52;5.30;;;4.80;;
12145;SDS011;6136;47.032;15.398;2022-08-14T03:05:24;6.03;;;5.00;;
12145;SDS011;6136;47.032;15.398;2022-08-14T03:08:05;5.80;;;4.80;;
12145;SDS011;6136;47.032;15.398;2022-08-14T03:10:36;6.03;;;4.90;;
12145;SDS011;6136;47.032;15.398;2022-08-14T03:13:07;6.93;;;5.10;;
12145;SDS011;6136;47.032;15.398;2022-08-14T03:15:44;5.53;;;5.03;;
12145;SDS011;6136;47.032;15.398;2022-08-14T03:18:14;5.77;;;5.17;;
12145;SDS011;6136;47.032;15.398;2022-08-14T03:20:43;5.93;;;5.33;;
12145;SDS011;6136;47.032;15.398;2022-08-14T03:23:12;5.43;;;4.77;;
12145;SDS011;6136;47.032;15.398;2022-08-14T03:25:41;5.37;;;4.70;;
12145;SDS011;6136;47.032;15.398;2022-08-14T03:28:09;5.90;;;5.30;;
12145;SDS011;6136;47.032;15.398;2022-08-14T03:30:40;5.57;;;5.07;;
12145;SDS011;6136;47.032;15.398;2022-08-14T03:33:10;5.90;;;5.30;;
12145;SDS011;6136;47.032;15.398;2022-08-14T03:35:39;6.43;;;5.07;;
12145;SDS011;6136;47.032;15.398;2022-08-14T03:38:25;6.03;;;5.40;;
12145;SDS011;6136;47.032;15.398;2022-08-14T03:41:15;5.70;;;5.10;;
12145;SDS011;6136;47.032;15.398;2022-08-14T03:43:44;5.97;;;5.37;;
12145;SDS011;6136;47.032;15.398;2022-08-14T03:46:23;5.80;;;5.30;;
12145;SDS011;6136;47.032;15.398;2022-08-14T03:49:04;7.83;;;5.40;;
12145;SDS011;6136;47.032;15.398;2022-08-14T03:51:34;7.23;;;5.50;;
12145;SDS011;6136;47.032;15.398;2022-08-14T03:54:04;5.83;;;5.33;;
12145;SDS011;6136;47.032;15.398;2022-08-14T03:56:37;6.00;;;4.60;;
12145;SDS011;6136;47.032;15.398;2022-08-14T03:59:10;5.70;;;5.20;;
12145;SDS011;6136;47.032;15.398;2022-08-14T04:01:43;7.80;;;5.57;;
12145;SDS011;6136;47.032;15.398;2022-08-14T04:04:23;7.77;;;5.50;;
12145;SDS011;6136;47.032;15.398;2022-08-14T04:06:51;6.27;;;5.67;;
12145;SDS011;6136;47.032;15.398;2022-08-14T04:09:19;11.43;;;5.73;;
12145;SDS011;6136;47.032;15.398;2022-08-14T04:11:49;6.10;;;5.43;;
12145;SDS011;6136;47.032;15.398;2022-08-14T04:14:17;6.43;;;5.63;;
12145;SDS011;6136;47.032;15.398;2022-08-14T04:16:45;5.67;;;5.13;;
12145;SDS011;6136;47.032;15.398;2022-08-14T04:19:14;5.87;;;5.20;;
12145;SDS011;6136;47.032;15.398;2022-08-14T04:21:45;6.03;;;5.43;;
12145;SDS011;6136;47.032;15.398;2022-08-14T04:24:29;5.90;;;5.30;;
12145;SDS011;6136;47.032;15.398;2022-08-14T04:27:05;7.17;;;5.23;;
12145;SDS011;6136;47.032;15.398;2022-08-14T04:29:35;7.23;;;5.60;;
12145;SDS011;6136;47.032;15.398;2022-08-14T04:32:05;6.10;;;5.20;;
12145;SDS011;6136;47.032;15.398;2022-08-14T04:34:54;7.33;;;5.83;;
12145;SDS011;6136;47.032;15.398;2022-08-14T04:37:23;6.07;;;5.47;;
12145;SDS011;6136;47.032;15.398;2022-08-14T04:40:23;8.03;;;6.07;;
12145;SDS011;6136;47.032;15.398;2022-08-14T04:43:10;6.03;;;5.43;;
12145;SDS011;6136;47.032;15.398;2022-08-14T04:46:05;6.40;;;5.80;;
12145;SDS011;6136;47.032;15.398;2022-08-14T04:48:34;6.83;;;6.13;;
12145;SDS011;6136;47.032;15.398;2022-08-14T04:51:09;7.77;;;6.13;;
12145;SDS011;6136;47.032;15.398;2022-08-14T04:53:40;6.97;;;6.03;;
12145;SDS011;6136;47.032;15.398;2022-08-14T04:56:10;6.73;;;6.00;;
12145;SDS011;6136;47.032;15.398;2022-08-14T04:58:59;7.03;;;5.63;;
12145;SDS011;6136;47.032;15.398;2022-08-14T05:01:36;6.77;;;6.17;;
12145;SDS011;6136;47.032;15.398;2022-08-14T05:04:10;6.10;;;5.50;;
12145;SDS011;6136;47.032;15.398;2022-08-14T05:06:40;6.90;;;6.20;;
12145;SDS011;6136;47.032;15.398;2022-08-14T05:09:08;7.17;;;6.47;;
12145;SDS011;6136;47.032;15.398;2022-08-14T05:11:37;9.87;;;6.70;;
12145;SDS011;6136;47.032;15.398;2022-08-14T05:14:06;9.47;;;7.23;;
12145;SDS011;6136;47.032;15.398;2022-08-14T05:16:42;9.20;;;6.87;;
12145;SDS011;6136;47.032;15.398;2022-08-14T05:19:12;7.13;;;6.27;;
12145;SDS011;6136;47.032;15.398;2022-08-14T05:21:44;7.03;;;6.33;;
12145;SDS011;6136;47.032;15.398;2022-08-14T05:24:26;7.73;;;5.93;;
12145;SDS011;6136;47.032;15.398;2022-08-14T05:26:54;7.70;;;6.20;;
12145;SDS011;6136;47.032;15.398;2022-08-14T05:29:24;8.30;;;6.53;;
12145;SDS011;6136;47.032;15.398;2022-08-14T05:31:52;8.30;;;7.00;;
12145;SDS011;6136;47.032;15.398;2022-08-14T05:34:23;7.00;;;6.30;;
12145;SDS011;6136;47.032;15.398;2022-08-14T05:36:54;7.40;;;6.40;;
12145;SDS011;6136;47.032;15.398;2022-08-14T05:39:24;6.80;;;6.10;;
12145;SDS011;6136;47.032;15.398;2022-08-14T05:41:52;6.83;;;6.13;;
12145;SDS011;6136;47.032;15.398;2022-08-14T05:44:23;7.10;;;5.40;;
12145;SDS011;6136;47.032;15.398;2022-08-14T05:46:55;7.50;;;6.57;;
12145;SDS011;6136;47.032;15.398;2022-08-14T05:49:23;7.60;;;6.90;;
12145;SDS011;6136;47.032;15.398;2022-08-14T05:51:58;7.70;;;6.23;;
12145;SDS011;6136;47.032;15.398;2022-08-14T05:54:28;6.73;;;5.73;;
12145;SDS011;6136;47.032;15.398;2022-08-14T05:57:01;9.27;;;6.77;;
12145;SDS011;6136;47.032;15.398;2022-08-14T05:59:31;7.63;;;6.23;;
12145;SDS011;6136;47.032;15.398;2022-08-14T06:02:04;8.70;;;6.80;;
12145;SDS011;6136;47.032;15.398;2022-08-14T06:04:33;8.67;;;6.80;;
12145;SDS011;6136;47.032;15.398;2022-08-14T06:07:01;6.53;;;5.93;;
12145;SDS011;6136;47.032;15.398;2022-08-14T06:09:30;6.33;;;5.53;;
12145;SDS011;6136;47.032;15.398;2022-08-14T06:12:01;7.70;;;6.17;;
12145;SDS011;6136;47.032;15.398;2022-08-14T06:14:31;7.07;;;6.37;;
12145;SDS011;6136;47.032;15.398;2022-08-14T06:16:59;6.33;;;5.70;;
12145;SDS011;6136;47.032;15.398;2022-08-14T06:19:28;6.00;;;5.40;;
12145;SDS011;6136;47.032;15.398;2022-08-14T06:21:56;7.67;;;5.87;;
12145;SDS011;6136;47.032;15.398;2022-08-14T06:24:25;6.40;;;5.80;;
12145;SDS011;6136;47.032;15.398;2022-08-14T06:26:56;6.60;;;6.00;;
12145;SDS011;6136;47.032;15.398;2022-08-14T06:29:29;7.60;;;5.93;;
12145;SDS011;6136;47.032;15.398;2022-08-14T06:32:00;6.90;;;6.27;;
12145;SDS011;6136;47.032;15.398;2022-08-14T06:34:49;9.83;;;5.63;;
12145;SDS011;6136;47.032;15.398;2022-08-14T06:37:37;6.70;;;6.00;;
12145;SDS011;6136;47.032;15.398;2022-08-14T06:40:07;6.00;;;5.37;;
12145;SDS011;6136;47.032;15.398;2022-08-14T06:42:51;7.70;;;6.20;;
12145;SDS011;6136;47.032;15.398;2022-08-14T06:45:21;7.13;;;5.80;;
12145;SDS011;6136;47.032;15.398;2022-08-14T06:47:52;6.47;;;5.37;;
12145;SDS011;6136;47.032;15.398;2022-08-14T06:50:21;6.53;;;5.22;;
12145;SDS011;6136;47.032;15.398;2022-08-14T06:52:53;8.82;;;5.35;;
12145;SDS011;6136;47.032;15.398;2022-08-14T06:55:22;6.55;;;5.10;;
12145;SDS011;6136;47.032;15.398;2022-08-14T06:57:53;6.82;;;5.50;;
12145;SDS011;6136;47.032;15.398;2022-08-14T07:00:25;6.60;;;5.38;;
12145;SDS011;6136;47.032;15.398;2022-08-14T07:02:57;7.18;;;5.40;;
12145;SDS011;6136;47.032;15.398;2022-08-14T07:05:43;7.65;;;6.03;;
12145;SDS011;6136;47.032;15.398;2022-08-14T07:08:24;7.72;;;6.55;;
12145;SDS011;6136;47.032;15.398;2022-08-14T07:10:57;5.90;;;5.30;;
12145;SDS011;6136;47.032;15.398;2022-08-14T07:13:26;5.35;;;4.85;;
12145;SDS011;6136;47.032;15.398;2022-08-14T07:15:58;6.45;;;5.78;;
12145;SDS011;6136;47.032;15.398;2022-08-14T07:18:31;6.00;;;5.10;;
12145;SDS011;6136;47.032;15.398;2022-08-14T07:21:04;5.40;;;4.90;;
12145;SDS011;6136;47.032;15.398;2022-08-14T07:23:33;5.35;;;4.85;;
12145;SDS011;6136;47.032;15.398;2022-08-14T07:26:05;5.60;;;4.93;;
12145;SDS011;6136;47.032;15.398;2022-08-14T07:28:38;5.20;;;4.70;;
12145;SDS011;6136;47.032;15.398;2022-08-14T07:31:10;5.15;;;4.65;;
12145;SDS011;6136;47.032;15.398;2022-08-14T07:33:42;5.97;;;5.40;;
12145;SDS011;6136;47.032;15.398;2022-08-14T07:36:16;6.18;;;5.07;;
12145;SDS011;6136;47.032;15.398;2022-08-14T07:38:53;5.10;;;4.70;;
12145;SDS011;6136;47.032;15.398;2022-08-14T07:41:21;6.22;;;5.72;;
12145;SDS011;6136;47.032;15.398;2022-08-14T07:43:49;5.20;;;4.57;;
12145;SDS011;6136;47.032;15.398;2022-08-14T07:46:22;6.43;;;4.78;;
12145;SDS011;6136;47.032;15.398;2022-08-14T07:48:55;5.75;;;4.95;;
12145;SDS011;6136;47.032;15.398;2022-08-14T07:51:23;6.88;;;4.90;;
12145;SDS011;6136;47.032;15.398;2022-08-14T07:54:00;5.30;;;4.70;;
12145;SDS011;6136;47.032;15.398;2022-08-14T07:56:28;5.15;;;4.28;;
12145;SDS011;6136;47.032;15.398;2022-08-14T07:59:13;5.38;;;4.90;;
12145;SDS011;6136;47.032;15.398;2022-08-14T08:01:45;5.18;;;4.68;;
12145;SDS011;6136;47.032;15.398;2022-08-14T08:04:18;4.68;;;4.28;;
12145;SDS011;6136;47.032;15.398;2022-08-14T08:06:50;5.50;;;4.93;;
12145;SDS011;6136;47.032;15.398;2022-08-14T08:09:19;4.90;;;4.40;;
12145;SDS011;6136;47.032;15.398;2022-08-14T08:11:57;5.28;;;4.78;;
12145;SDS011;6136;47.032;15.398;2022-08-14T08:14:31;5.40;;;4.90;;
12145;SDS011;6136;47.032;15.398;2022-08-14T08:17:22;7.20;;;4.32;;
12145;SDS011;6136;47.032;15.398;2022-08-14T08:19:50;6.45;;;4.10;;
12145;SDS011;6136;47.032;15.398;2022-08-14T08:22:19;5.03;;;4.45;;
12145;SDS011;6136;47.032;15.398;2022-08-14T08:24:52;5.15;;;4.68;;
12145;SDS011;6136;47.032;15.398;2022-08-14T08:27:21;4.95;;;4.53;;
12145;SDS011;6136;47.032;15.398;2022-08-14T08:29:49;4.88;;;4.45;;
12145;SDS011;6136;47.032;15.398;2022-08-14T08:32:17;4.53;;;4.13;;
12145;SDS011;6136;47.032;15.398;2022-08-14T08:34:46;5.05;;;4.00;;
12145;SDS011;6136;47.032;15.398;2022-08-14T08:37:15;4.13;;;3.70;;
12145;SDS011;6136;47.032;15.398;2022-08-14T08:39:43;4.30;;;3.92;;
12145;SDS011;6136;47.032;15.398;2022-08-14T08:42:27;4.82;;;4.30;;
12145;SDS011;6136;47.032;15.398;2022-08-14T08:44:57;4.50;;;4.10;;
12145;SDS011;6136;47.032;15.398;2022-08-14T08:47:25;4.10;;;3.70;;
12145;SDS011;6136;47.032;15.398;2022-08-14T08:50:13;5.45;;;3.92;;
12145;SDS011;6136;47.032;15.398;2022-08-14T08:52:49;4.03;;;3.72;;
12145;SDS011;6136;47.032;15.398;2022-08-14T08:55:25;4.15;;;3.83;;
12145;SDS011;6136;47.032;15.398;2022-08-14T08:57:59;4.65;;;4.15;;
12145;SDS011;6136;47.032;15.398;2022-08-14T09:00:31;5.57;;;4.28;;
12145;SDS011;6136;47.032;15.398;2022-08-14T09:03:02;4.45;;;4.05;;
12145;SDS011;6136;47.032;15.398;2022-08-14T09:05:34;4.80;;;4.30;;
12145;SDS011;6136;47.032;15.398;2022-08-14T09:08:13;4.15;;;3.85;;
12145;SDS011;6136;47.032;15.398;2022-08-14T09:10:52;4.10;;;3.80;;
12145;SDS011;6136;47.032;15.398;2022-08-14T09:13:22;5.18;;;4.25;;
12145;SDS011;6136;47.032;15.398;2022-08-14T09:15:52;4.20;;;3.80;;
12145;SDS011;6136;47.032;15.398;2022-08-14T09:18:22;5.10;;;4.10;;
12145;SDS011;6136;47.032;15.398;2022-08-14T09:20:54;4.13;;;3.72;;
12145;SDS011;6136;47.032;15.398;2022-08-14T09:23:24;3.92;;;3.63;;
12145;SDS011;6136;47.032;15.398;2022-08-14T09:26:00;4.45;;;4.10;;
12145;SDS011;6136;47.032;15.398;2022-08-14T09:28:46;4.10;;;3.80;;
12145;SDS011;6136;47.032;15.398;2022-08-14T09:31:14;4.97;;;4.30;;
12145;SDS011;6136;47.032;15.398;2022-08-14T09:33:51;4.45;;;4.05;;
12145;SDS011;6136;47.032;15.398;2022-08-14T09:36:36;4.25;;;3.85;;
12145;SDS011;6136;47.032;15.398;2022-08-14T09:39:24;4.53;;;4.13;;
12145;SDS011;6136;47.032;15.398;2022-08-14T09:42:15;4.22;;;3.90;;
12145;SDS011;6136;47.032;15.398;2022-08-14T09:45:13;4.18;;;3.80;;
12145;SDS011;6136;47.032;15.398;2022-08-14T09:47:43;4.75;;;4.28;;
12145;SDS011;6136;47.032;15.398;2022-08-14T09:50:22;4.45;;;3.83;;
12145;SDS011;6136;47.032;15.398;2022-08-14T09:52:55;4.45;;;4.15;;
12145;SDS011;6136;47.032;15.398;2022-08-14T09:55:26;3.97;;;3.67;;
12145;SDS011;6136;47.032;15.398;2022-08-14T09:58:09;4.35;;;4.05;;
12145;SDS011;6136;47.032;15.398;2022-08-14T10:00:46;3.72;;;3.42;;
12145;SDS011;6136;47.032;15.398;2022-08-14T10:03:25;4.00;;;3.70;;
12145;SDS011;6136;47.032;15.398;2022-08-14T10:06:03;4.10;;;3.70;;
12145;SDS011;6136;47.032;15.398;2022-08-14T10:08:42;4.13;;;3.83;;
12145;SDS011;6136;47.032;15.398;2022-08-14T10:11:17;4.10;;;3.75;;
12145;SDS011;6136;47.032;15.398;2022-08-14T10:13:49;4.90;;;4.50;;
12145;SDS011;6136;47.032;15.398;2022-08-14T10:16:22;3.90;;;3.60;;
12145;SDS011;6136;47.032;15.398;2022-08-14T10:19:03;3.95;;;3.65;;
12145;SDS011;6136;47.032;15.398;2022-08-14T10:21:35;4.05;;;3.72;;
12145;SDS011;6136;47.032;15.398;2022-08-14T10:24:26;4.35;;;4.05;;
12145;SDS011;6136;47.032;15.398;2022-08-14T10:27:01;4.25;;;3.95;;
12145;SDS011;6136;47.032;15.398;2022-08-14T10:29:31;4.85;;;3.78;;
12145;SDS011;6136;47.032;15.398;2022-08-14T10:32:00;4.10;;;3.70;;
12145;SDS011;6136;47.032;15.398;2022-08-14T10:34:29;4.25;;;3.90;;
12145;SDS011;6136;47.032;15.398;2022-08-14T10:37:02;4.10;;;3.80;;
12145;SDS011;6136;47.032;15.398;2022-08-14T10:39:37;4.22;;;3.92;;
12145;SDS011;6136;47.032;15.398;2022-08-14T10:42:16;4.72;;;4.20;;
12145;SDS011;6136;47.032;15.398;2022-08-14T10:44:46;5.30;;;4.45;;
12145;SDS011;6136;47.032;15.398;2022-08-14T10:47:17;4.93;;;4.47;;
12145;SDS011;6136;47.032;15.398;2022-08-14T10:50:06;4.28;;;3.88;;
12145;SDS011;6136;47.032;15.398;2022-08-14T10:52:37;3.95;;;3.65;;
12145;SDS011;6136;47.032;15.398;2022-08-14T10:55:10;4.22;;;3.92;;
12145;SDS011;6136;47.032;15.398;2022-08-14T10:57:48;4.35;;;4.00;;
12145;SDS011;6136;47.032;15.398;2022-08-14T11:00:18;4.90;;;4.40;;
12145;SDS011;6136;47.032;15.398;2022-08-14T11:02:56;4.72;;;4.30;;
12145;SDS011;6136;47.032;15.398;2022-08-14T11:05:36;4.63;;;4.22;;
12145;SDS011;6136;47.032;15.398;2022-08-14T11:08:08;4.53;;;4.13;;
12145;SDS011;6136;47.032;15.398;2022-08-14T11:10:44;4.57;;;4.15;;
12145;SDS011;6136;47.032;15.398;2022-08-14T11:13:16;4.93;;;4.25;;
12145;SDS011;6136;47.032;15.398;2022-08-14T11:15:49;4.32;;;4.03;;
12145;SDS011;6136;47.032;15.398;2022-08-14T11:18:18;4.60;;;3.97;;
12145;SDS011;6136;47.032;15.398;2022-08-14T11:20:58;4.82;;;4.32;;
12145;SDS011;6136;47.032;15.398;2022-08-14T11:23:29;3.97;;;3.67;;
12145;SDS011;6136;47.032;15.398;2022-08-14T11:26:06;4.53;;;4.13;;
12145;SDS011;6136;47.032;15.398;2022-08-14T11:28:36;4.03;;;3.70;;
12145;SDS011;6136;47.032;15.398;2022-08-14T11:31:12;4.45;;;4.05;;
12145;SDS011;6136;47.032;15.398;2022-08-14T11:33:40;5.30;;;4.60;;
12145;SDS011;6136;47.032;15.398;2022-08-14T11:36:09;4.35;;;3.95;;
12145;SDS011;6136;47.032;15.398;2022-08-14T11:38:43;4.60;;;4.20;;
12145;SDS011;6136;47.032;15.398;2022-08-14T11:41:14;4.80;;;4.30;;
12145;SDS011;6136;47.032;15.398;2022-08-14T11:43:43;4.32;;;3.92;;
12145;SDS011;6136;47.032;15.398;2022-08-14T11:46:23;4.78;;;4.38;;
12145;SDS011;6136;47.032;15.398;2022-08-14T11:48:55;4.50;;;4.10;;
12145;SDS011;6136;47.032;15.398;2022-08-14T11:51:28;4.38;;;3.97;;
12145;SDS011;6136;47.032;15.398;2022-08-14T11:54:02;4.53;;;4.13;;
12145;SDS011;6136;47.032;15.398;2022-08-14T11:56:36;5.93;;;4.72;;
12145;SDS011;6136;47.032;15.398;2022-08-14T11:59:07;4.25;;;3.85;;
12145;SDS011;6136;47.032;15.398;2022-08-14T12:01:43;4.15;;;3.75;;
12145;SDS011;6136;47.032;15.398;2022-08-14T12:04:12;4.25;;;3.95;;
12145;SDS011;6136;47.032;15.398;2022-08-14T12:06:58;7.95;;;3.90;;
12145;SDS011;6136;47.032;15.398;2022-08-14T12:09:28;3.83;;;3.53;;
12145;SDS011;6136;47.032;15.398;2022-08-14T12:11:58;4.15;;;3.85;;
12145;SDS011;6136;47.032;15.398;2022-08-14T12:14:28;4.05;;;3.75;;
12145;SDS011;6136;47.032;15.398;2022-08-14T12:17:02;5.68;;;5.18;;
12145;SDS011;6136;47.032;15.398;2022-08-14T12:19:44;7.00;;;6.40;;
12145;SDS011;6136;47.032;15.398;2022-08-14T12:22:17;4.78;;;4.38;;
12145;SDS011;6136;47.032;15.398;2022-08-14T12:24:55;4.25;;;3.88;;
12145;SDS011;6136;47.032;15.398;2022-08-14T12:27:34;4.38;;;4.07;;
12145;SDS011;6136;47.032;15.398;2022-08-14T12:30:24;4.85;;;4.15;;
12145;SDS011;6136;47.032;15.398;2022-08-14T12:32:54;4.38;;;4.07;;
12145;SDS011;6136;47.032;15.398;2022-08-14T12:35:26;3.80;;;3.50;;
12145;SDS011;6136;47.032;15.398;2022-08-14T12:38:05;5.82;;;3.97;;
12145;SDS011;6136;47.032;15.398;2022-08-14T12:40:35;3.95;;;3.65;;
12145;SDS011;6136;47.032;15.398;2022-08-14T12:43:14;4.65;;;4.22;;
12145;SDS011;6136;47.032;15.398;2022-08-14T12:45:45;4.30;;;3.90;;
12145;SDS011;6136;47.032;15.398;2022-08-14T12:48:16;4.03;;;3.67;;
12145;SDS011;6136;47.032;15.398;2022-08-14T12:50:47;4.20;;;3.90;;
12145;SDS011;6136;47.032;15.398;2022-08-14T12:53:17;4.35;;;3.95;;
12145;SDS011;6136;47.032;15.398;2022-08-14T12:55:56;5.57;;;4.38;;
12145;SDS011;6136;47.032;15.398;2022-08-14T12:58:49;4.97;;;4.47;;
12145;SDS011;6136;47.032;15.398;2022-08-14T13:01:19;5.70;;;4.97;;
12145;SDS011;6136;47.032;15.398;2022-08-14T13:03:49;6.95;;;3.60;;
12145;SDS011;6136;47.032;15.398;2022-08-14T13:06:18;4.15;;;3.78;;
12145;SDS011;6136;47.032;15.398;2022-08-14T13:08:49;4.43;;;4.03;;
12145;SDS011;6136;47.032;15.398;2022-08-14T13:11:26;4.30;;;3.63;;
12145;SDS011;6136;47.032;15.398;2022-08-14T13:14:07;3.83;;;3.42;;
12145;SDS011;6136;47.032;15.398;2022-08-14T13:16:43;4.45;;;4.05;;
12145;SDS011;6136;47.032;15.398;2022-08-14T13:19:15;4.03;;;3.72;;
12145;SDS011;6136;47.032;15.398;2022-08-14T13:21:46;5.15;;;3.55;;
12145;SDS011;6136;47.032;15.398;2022-08-14T13:24:24;4.10;;;3.42;;
12145;SDS011;6136;47.032;15.398;2022-08-14T13:26:53;3.90;;;3.50;;
12145;SDS011;6136;47.032;15.398;2022-08-14T13:29:27;5.65;;;4.03;;
12145;SDS011;6136;47.032;15.398;2022-08-14T13:31:57;6.22;;;3.80;;
12145;SDS011;6136;47.032;15.398;2022-08-14T13:34:27;4.35;;;3.95;;
12145;SDS011;6136;47.032;15.398;2022-08-14T13:36:57;3.63;;;3.33;;
12145;SDS011;6136;47.032;15.398;2022-08-14T13:39:29;4.50;;;4.10;;
12145;SDS011;6136;47.032;15.398;2022-08-14T13:42:02;3.17;;;2.97;;
12145;SDS011;6136;47.032;15.398;2022-08-14T13:44:37;3.90;;;3.60;;
12145;SDS011;6136;47.032;15.398;2022-08-14T13:47:08;4.28;;;3.88;;
12145;SDS011;6136;47.032;15.398;2022-08-14T13:49:36;3.90;;;3.60;;
12145;SDS011;6136;47.032;15.398;2022-08-14T13:52:22;4.00;;;3.70;;
12145;SDS011;6136;47.032;15.398;2022-08-14T13:55:12;4.07;;;3.78;;
12145;SDS011;6136;47.032;15.398;2022-08-14T13:57:45;4.45;;;4.03;;
12145;SDS011;6136;47.032;15.398;2022-08-14T14:00:24;3.95;;;3.60;;
12145;SDS011;6136;47.032;15.398;2022-08-14T14:02:58;4.50;;;4.10;;
12145;SDS011;6136;47.032;15.398;2022-08-14T14:05:28;4.70;;;3.95;;
12145;SDS011;6136;47.032;15.398;2022-08-14T14:08:18;4.38;;;3.97;;
12145;SDS011;6136;47.032;15.398;2022-08-14T14:11:07;4.15;;;3.75;;
12145;SDS011;6136;47.032;15.398;2022-08-14T14:13:36;4.07;;;3.78;;
12145;SDS011;6136;47.032;15.398;2022-08-14T14:16:08;4.07;;;3.67;;
12145;SDS011;6136;47.032;15.398;2022-08-14T14:18:40;5.55;;;3.42;;
12145;SDS011;6136;47.032;15.398;2022-08-14T14:21:09;4.15;;;3.80;;
12145;SDS011;6136;47.032;15.398;2022-08-14T14:23:40;5.57;;;3.88;;
12145;SDS011;6136;47.032;15.398;2022-08-14T14:26:11;3.85;;;3.55;;
12145;SDS011;6136;47.032;15.398;2022-08-14T14:28:47;5.47;;;3.85;;
12145;SDS011;6136;47.032;15.398;2022-08-14T14:31:19;4.28;;;3.88;;
12145;SDS011;6136;47.032;15.398;2022-08-14T14:33:56;4.00;;;3.55;;
12145;SDS011;6136;47.032;15.398;2022-08-14T14:36:26;5.72;;;4.20;;
12145;SDS011;6136;47.032;15.398;2022-08-14T14:38:56;4.07;;;3.53;;
12145;SDS011;6136;47.032;15.398;2022-08-14T14:41:28;3.65;;;3.35;;
12145;SDS011;6136;47.032;15.398;2022-08-14T14:44:03;4.20;;;3.80;;
12145;SDS011;6136;47.032;15.398;2022-08-14T14:46:36;3.42;;;3.13;;
12145;SDS011;6136;47.032;15.398;2022-08-14T14:49:08;4.00;;;3.70;;
12145;SDS011;6136;47.032;15.398;2022-08-14T14:51:40;4.70;;;3.47;;
12145;SDS011;6136;47.032;15.398;2022-08-14T14:54:12;4.00;;;3.60;;
12145;SDS011;6136;47.032;15.398;2022-08-14T14:56:43;3.65;;;3.35;;
12145;SDS011;6136;47.032;15.398;2022-08-14T14:59:18;4.13;;;3.72;;
12145;SDS011;6136;47.032;15.398;2022-08-14T15:01:48;3.70;;;3.40;;
12145;SDS011;6136;47.032;15.398;2022-08-14T15:04:17;3.95;;;3.60;;
12145;SDS011;6136;47.032;15.398;2022-08-14T15:06:46;3.75;;;3.38;;
12145;SDS011;6136;47.032;15.398;2022-08-14T15:09:15;3.60;;;3.30;;
12145;SDS011;6136;47.032;15.398;2022-08-14T15:11:43;3.67;;;3.38;;
12145;SDS011;6136;47.032;15.398;2022-08-14T15:14:12;3.90;;;3.50;;
12145;SDS011;6136;47.032;15.398;2022-08-14T15:17:02;4.15;;;3.78;;
12145;SDS011;6136;47.032;15.398;2022-08-14T15:19:32;5.35;;;3.63;;
12145;SDS011;6136;47.032;15.398;2022-08-14T15:22:00;3.92;;;3.53;;
12145;SDS011;6136;47.032;15.398;2022-08-14T15:24:29;4.18;;;3.53;;
12145;SDS011;6136;47.032;15.398;2022-08-14T15:26:57;3.55;;;3.25;;